Nearby METAR Reports


KSYR - Syracuse, New York, USA
Distance from station: SE 5mi, 8km
Updated: Tue, 19-Feb-2019 3:54am EST
Mostly cloudy
Mostly cloudy
 Wind from NNW
Wind: NNW 6 mph , 9 km/h
Temperature: 10°F , -12°C
Wind Chill: 0°F , -18°C
Dew Point: 1°F , -17°C
Humidity: 67%
Barometer: 30.50 inHg , 1032.8 hPa
Clouds: Mostly cloudy
Visibility: 10 miles , 16 km
Cloud details: Partly cloudy 2800 ft
Mostly cloudy 4000 ft
2019/02/19 08:54 KSYR 190854Z 33005KT 10SM SCT028 BKN040 M12/M17 A3050 RMK AO2 SLP333 T11221172 51025
KFZY - Fulton, New York, USA
Distance from station: NW 17mi, 27km
Updated: Tue, 19-Feb-2019 3:54am EST
Overcast
Overcast
 Wind from NE
Wind: NE 3 mph , 6 km/h
Temperature: 10°F , -12°C
Dew Point: -0°F , -18°C
Humidity: 61%
Barometer: 30.49 inHg , 1032.5 hPa
Clouds: Overcast
Visibility: 10 miles , 16 km
Cloud details: Mostly cloudy 2400 ft
Overcast 3500 ft
2019/02/19 08:54 KFZY 190854Z AUTO 05003KT 10SM BKN024 OVC035 M12/M18 A3049 RMK AO2 SLP336 T11221183 51023
 
KRME - Rome/Griffiss Af, New York, USA
Distance from station: E 39mi, 62km
Updated: Tue, 19-Feb-2019 3:53am EST
Clear
Clear
 Wind from W
Wind: W 3 mph , 6 km/h
Temperature: -2°F , -19°C
Dew Point: -6°F , -21°C
Humidity: 84%
Barometer: 30.49 inHg , 1032.5 hPa
Clouds: Clear
Visibility: 10 miles , 16 km
2019/02/19 08:53 KRME 190853Z AUTO 28003KT 10SM CLR M19/M21 A3049 RMK AO2 SLP336 I3000 T11941211 51026
KITH - Ithaca/Tompkins, New York, USA
Distance from station: SSW 51mi, 82km
Updated: Tue, 19-Feb-2019 3:56am EST
Overcast
Overcast
 Wind from NW
Wind: NW 7 mph , 11 km/h
Temperature: 12°F , -11°C
Wind Chill: 1°F , -17°C
Dew Point: 10°F , -12°C
Humidity: 92%
Barometer: 30.44 inHg , 1030.8 hPa
Clouds: Overcast
Visibility: 10 miles , 16 km
Cloud details: Mostly cloudy 1500 ft
Overcast 2200 ft
2019/02/19 08:56 KITH 190856Z AUTO 31006KT 10SM BKN015 OVC022 M11/M12 A3044 RMK AO2 SLP329 60000 T11061122 51013
 
KART - Watertown, New York, USA
Distance from station: N 56mi, 91km
Updated: Tue, 19-Feb-2019 3:56am EST
Clear
Clear
 Wind from E
Wind: E 5 mph , 7 km/h
Temperature: -11°F , -24°C
Wind Chill: -23°F , -31°C
Dew Point: -17°F , -27°C
Humidity: 76%
Barometer: 30.51 inHg , 1033.2 hPa
Clouds: Clear
Visibility: 10 miles , 16 km
2019/02/19 08:56 KART 190856Z AUTO 10004KT 10SM CLR M24/M27 A3051 RMK AO2 SLP347 T12441267 51022
KPEO - Penn Yan, New York, USA
Distance from station: SW 58mi, 93km
Updated: Tue, 19-Feb-2019 3:53am EST
Mostly cloudy
Mostly cloudy
 Wind from W
Wind: W 7 mph , 11 km/h
Temperature: 12°F , -11°C
Wind Chill: 1°F , -17°C
Dew Point: 7°F , -14°C
Humidity: 79%
Barometer: 30.47 inHg , 1031.8 hPa
Clouds: Mostly cloudy
Visibility: 10 miles , 16 km
Cloud details: Mostly cloudy 700 ft
2019/02/19 08:53 KPEO 190853Z AUTO 27006KT 10SM BKN007 M11/M14 A3047 RMK AO2 SLP336 T11111144 52004
 
KGTB - Fort Drum/Wheele, New York, USA
Distance from station: NNE 64mi, 102km
Updated: Tue, 19-Feb-2019 3:56am EST
Clear
Clear
 Wind from NW
Wind: NW 5 mph , 7 km/h
Temperature: 1°F , -17°C
Wind Chill: -9°F , -23°C
Dew Point: -6°F , -21°C
Humidity: 71%
Barometer: 30.46 inHg , 1031.5 hPa
Clouds: Clear
Visibility: 10 miles , 16 km
2019/02/19 08:56 KGTB 190856Z AUTO 32004KT 10SM CLR M17/M21 A3046 RMK AO2 SLP331 T11671208 52022 CHINO RWY21 $
CWQP - Point Petre (mar, Ontario, Canada
Distance from station: NW 67mi, 107km
Updated: Tue, 19-Feb-2019 3:00am EST

 Wind from NW
Wind: NW 6 mph , 9 km/h
Temperature: -0°F , -18°C
Wind Chill: -12°F , -24°C
Dew Point: -6°F , -21°C
Humidity: 78%
2019/02/19 08:00 CWQP 190800Z AUTO 31005KT M18/M21 RMK AO1 SOG 12 1031 SLP346 T11831213
 
KBGM - Binghamton, New York, USA
Distance from station: S 67mi, 107km
Updated: Tue, 19-Feb-2019 3:53am EST
Light snow, Mist, Overcast
Light snow, Mist, Overcast
 Wind from WNW
Wind: WNW 8 mph , 13 km/h
Temperature: 12°F , -11°C
Wind Chill: 0°F , -18°C
Dew Point: 9°F , -13°C
Humidity: 85%
Barometer: 30.36 inHg , 1028.1 hPa
Summary: Light snow, Mist
Clouds: Overcast
Visibility: 3 miles , 5 km
Cloud details: Overcast 1400 ft
2019/02/19 08:53 KBGM 190853Z AUTO 30007KT 3SM -SN BR OVC014 M11/M13 A3036 RMK AO2 SNB0754 SLP314 P0000 60000 T11111133 51013
CYGK - Kingston Arpt (m, Ontario, Canada
Distance from station: NNW 75mi, 121km
Updated: Mon, 18-Feb-2019 11:00pm EST
NOT Current
Few Clouds
Few Clouds
 Wind from NNW
Wind: NNW 7 mph , 11 km/h
Temperature: 10°F , -12°C
Wind Chill: -1°F , -18°C
Dew Point: -2°F , -19°C
Humidity: 56%
Barometer: 30.39 inHg , 1029.1 hPa
Clouds: Few Clouds
Visibility: 15 miles , 24 km
Cloud details: Few Clouds 25000 ft
2019/02/19 04:00 CYGK 190400Z 33006KT 15SM FEW250 M12/M19 A3039 RMK CI2 LAST STFD OBS/NEXT 191100 UTC SLP301